sensor_id;sensor_type;location;lat;lon;timestamp;P1;durP1;ratioP1;P2;durP2;ratioP2
20203;SDS011;10261;49.010;12.034;2023-05-23T00:00:11;7.97;;;7.00;;
20203;SDS011;10261;49.010;12.034;2023-05-23T00:01:17;8.18;;;6.60;;
20203;SDS011;10261;49.010;12.034;2023-05-23T00:02:18;8.43;;;6.50;;
20203;SDS011;10261;49.010;12.034;2023-05-23T00:03:21;9.73;;;7.40;;
20203;SDS011;10261;49.010;12.034;2023-05-23T00:04:24;9.48;;;7.85;;
20203;SDS011;10261;49.010;12.034;2023-05-23T00:05:27;10.32;;;7.95;;
20203;SDS011;10261;49.010;12.034;2023-05-23T00:06:29;15.80;;;8.05;;
20203;SDS011;10261;49.010;12.034;2023-05-23T00:07:32;9.85;;;7.70;;
20203;SDS011;10261;49.010;12.034;2023-05-23T00:08:35;10.38;;;7.72;;
20203;SDS011;10261;49.010;12.034;2023-05-23T00:09:37;8.00;;;7.07;;
20203;SDS011;10261;49.010;12.034;2023-05-23T00:10:39;8.50;;;7.00;;
20203;SDS011;10261;49.010;12.034;2023-05-23T00:11:42;8.55;;;7.65;;
20203;SDS011;10261;49.010;12.034;2023-05-23T00:12:45;8.50;;;7.47;;
20203;SDS011;10261;49.010;12.034;2023-05-23T00:13:48;9.55;;;7.90;;
20203;SDS011;10261;49.010;12.034;2023-05-23T00:14:51;11.43;;;8.05;;
20203;SDS011;10261;49.010;12.034;2023-05-23T00:15:54;9.07;;;7.82;;
20203;SDS011;10261;49.010;12.034;2023-05-23T00:16:58;9.40;;;7.18;;
20203;SDS011;10261;49.010;12.034;2023-05-23T00:18:01;10.00;;;7.35;;
20203;SDS011;10261;49.010;12.034;2023-05-23T00:19:03;10.15;;;7.18;;
20203;SDS011;10261;49.010;12.034;2023-05-23T00:20:06;9.13;;;7.53;;
20203;SDS011;10261;49.010;12.034;2023-05-23T00:21:12;10.25;;;7.88;;
20203;SDS011;10261;49.010;12.034;2023-05-23T00:22:14;11.75;;;8.30;;
20203;SDS011;10261;49.010;12.034;2023-05-23T00:23:17;9.30;;;7.78;;
20203;SDS011;10261;49.010;12.034;2023-05-23T00:24:21;11.30;;;6.80;;
20203;SDS011;10261;49.010;12.034;2023-05-23T00:25:23;7.82;;;6.95;;
20203;SDS011;10261;49.010;12.034;2023-05-23T00:26:34;11.40;;;8.23;;
20203;SDS011;10261;49.010;12.034;2023-05-23T00:27:36;8.82;;;7.65;;
20203;SDS011;10261;49.010;12.034;2023-05-23T00:28:39;11.57;;;8.45;;
20203;SDS011;10261;49.010;12.034;2023-05-23T00:29:41;12.73;;;7.88;;
20203;SDS011;10261;49.010;12.034;2023-05-23T00:30:44;10.07;;;7.82;;
20203;SDS011;10261;49.010;12.034;2023-05-23T00:31:46;8.63;;;7.82;;
20203;SDS011;10261;49.010;12.034;2023-05-23T00:32:50;8.43;;;7.63;;
20203;SDS011;10261;49.010;12.034;2023-05-23T00:33:54;9.27;;;7.88;;
20203;SDS011;10261;49.010;12.034;2023-05-23T00:34:57;11.02;;;7.13;;
20203;SDS011;10261;49.010;12.034;2023-05-23T00:35:59;6.85;;;6.22;;
20203;SDS011;10261;49.010;12.034;2023-05-23T00:37:03;9.32;;;7.78;;
20203;SDS011;10261;49.010;12.034;2023-05-23T00:38:05;8.80;;;7.88;;
20203;SDS011;10261;49.010;12.034;2023-05-23T00:39:09;9.85;;;8.13;;
20203;SDS011;10261;49.010;12.034;2023-05-23T00:40:19;8.55;;;7.65;;
20203;SDS011;10261;49.010;12.034;2023-05-23T00:41:22;7.60;;;6.85;;
20203;SDS011;10261;49.010;12.034;2023-05-23T00:42:26;11.35;;;8.23;;
20203;SDS011;10261;49.010;12.034;2023-05-23T00:43:28;8.82;;;7.32;;
20203;SDS011;10261;49.010;12.034;2023-05-23T00:44:31;9.75;;;7.00;;
20203;SDS011;10261;49.010;12.034;2023-05-23T00:45:34;7.97;;;7.18;;
20203;SDS011;10261;49.010;12.034;2023-05-23T00:46:36;12.55;;;7.63;;
20203;SDS011;10261;49.010;12.034;2023-05-23T00:47:40;8.07;;;7.03;;
20203;SDS011;10261;49.010;12.034;2023-05-23T00:48:43;8.70;;;7.80;;
20203;SDS011;10261;49.010;12.034;2023-05-23T00:49:46;10.10;;;7.68;;
20203;SDS011;10261;49.010;12.034;2023-05-23T00:50:48;8.95;;;7.72;;
20203;SDS011;10261;49.010;12.034;2023-05-23T00:51:51;8.30;;;7.40;;
20203;SDS011;10261;49.010;12.034;2023-05-23T00:52:54;7.45;;;6.65;;
20203;SDS011;10261;49.010;12.034;2023-05-23T00:53:59;9.60;;;7.78;;
20203;SDS011;10261;49.010;12.034;2023-05-23T00:55:02;9.60;;;7.97;;
20203;SDS011;10261;49.010;12.034;2023-05-23T00:56:06;10.73;;;7.60;;
20203;SDS011;10261;49.010;12.034;2023-05-23T00:57:08;8.80;;;7.70;;
20203;SDS011;10261;49.010;12.034;2023-05-23T00:58:11;8.32;;;7.53;;
20203;SDS011;10261;49.010;12.034;2023-05-23T00:59:15;12.98;;;7.93;;
20203;SDS011;10261;49.010;12.034;2023-05-23T01:00:18;11.57;;;8.30;;
20203;SDS011;10261;49.010;12.034;2023-05-23T01:01:20;9.77;;;7.85;;
20203;SDS011;10261;49.010;12.034;2023-05-23T01:02:24;10.82;;;7.95;;
20203;SDS011;10261;49.010;12.034;2023-05-23T01:03:26;11.50;;;8.25;;
20203;SDS011;10261;49.010;12.034;2023-05-23T01:04:32;11.73;;;8.80;;
20203;SDS011;10261;49.010;12.034;2023-05-23T01:05:34;11.52;;;8.77;;
20203;SDS011;10261;49.010;12.034;2023-05-23T01:06:37;14.98;;;7.60;;
20203;SDS011;10261;49.010;12.034;2023-05-23T01:07:39;9.10;;;7.70;;
20203;SDS011;10261;49.010;12.034;2023-05-23T01:08:41;8.93;;;7.88;;
20203;SDS011;10261;49.010;12.034;2023-05-23T01:09:45;11.20;;;7.80;;
20203;SDS011;10261;49.010;12.034;2023-05-23T01:10:47;10.40;;;7.82;;
20203;SDS011;10261;49.010;12.034;2023-05-23T01:12:00;10.55;;;7.95;;
20203;SDS011;10261;49.010;12.034;2023-05-23T01:13:16;8.40;;;7.50;;
20203;SDS011;10261;49.010;12.034;2023-05-23T01:14:27;8.82;;;7.55;;
20203;SDS011;10261;49.010;12.034;2023-05-23T01:15:35;12.02;;;7.95;;
20203;SDS011;10261;49.010;12.034;2023-05-23T01:16:45;8.52;;;7.70;;
20203;SDS011;10261;49.010;12.034;2023-05-23T01:17:51;8.25;;;7.25;;
20203;SDS011;10261;49.010;12.034;2023-05-23T01:19:03;12.93;;;7.43;;
20203;SDS011;10261;49.010;12.034;2023-05-23T01:20:20;11.85;;;8.77;;
20203;SDS011;10261;49.010;12.034;2023-05-23T01:21:25;10.25;;;8.13;;
20203;SDS011;10261;49.010;12.034;2023-05-23T01:22:40;11.32;;;8.18;;
20203;SDS011;10261;49.010;12.034;2023-05-23T01:24:06;8.75;;;7.95;;
20203;SDS011;10261;49.010;12.034;2023-05-23T01:25:33;9.23;;;8.15;;
20203;SDS011;10261;49.010;12.034;2023-05-23T01:26:59;8.50;;;7.53;;
20203;SDS011;10261;49.010;12.034;2023-05-23T01:28:10;9.60;;;8.23;;
20203;SDS011;10261;49.010;12.034;2023-05-23T01:29:18;8.73;;;7.75;;
20203;SDS011;10261;49.010;12.034;2023-05-23T01:30:24;8.77;;;7.47;;
20203;SDS011;10261;49.010;12.034;2023-05-23T01:31:31;9.07;;;7.80;;
20203;SDS011;10261;49.010;12.034;2023-05-23T01:32:36;15.40;;;7.75;;
20203;SDS011;10261;49.010;12.034;2023-05-23T01:33:41;15.48;;;8.60;;
20203;SDS011;10261;49.010;12.034;2023-05-23T01:34:44;9.00;;;7.93;;
20203;SDS011;10261;49.010;12.034;2023-05-23T01:35:48;9.45;;;7.60;;
20203;SDS011;10261;49.010;12.034;2023-05-23T01:36:52;8.50;;;7.60;;
20203;SDS011;10261;49.010;12.034;2023-05-23T01:37:56;8.93;;;7.85;;
20203;SDS011;10261;49.010;12.034;2023-05-23T01:38:57;9.10;;;7.90;;
20203;SDS011;10261;49.010;12.034;2023-05-23T01:40:00;9.98;;;8.18;;
20203;SDS011;10261;49.010;12.034;2023-05-23T01:41:02;9.93;;;8.80;;
20203;SDS011;10261;49.010;12.034;2023-05-23T01:42:05;11.50;;;7.95;;
20203;SDS011;10261;49.010;12.034;2023-05-23T01:43:10;10.20;;;8.07;;
20203;SDS011;10261;49.010;12.034;2023-05-23T01:44:13;9.48;;;8.48;;
20203;SDS011;10261;49.010;12.034;2023-05-23T01:45:15;8.68;;;7.78;;
20203;SDS011;10261;49.010;12.034;2023-05-23T01:46:19;9.07;;;8.07;;
20203;SDS011;10261;49.010;12.034;2023-05-23T01:47:22;12.57;;;7.80;;
20203;SDS011;10261;49.010;12.034;2023-05-23T01:48:25;9.85;;;8.38;;
20203;SDS011;10261;49.010;12.034;2023-05-23T01:49:29;11.07;;;8.93;;
20203;SDS011;10261;49.010;12.034;2023-05-23T01:50:32;10.18;;;8.15;;
20203;SDS011;10261;49.010;12.034;2023-05-23T01:51:35;10.00;;;8.18;;
20203;SDS011;10261;49.010;12.034;2023-05-23T01:52:38;8.48;;;7.57;;
20203;SDS011;10261;49.010;12.034;2023-05-23T01:53:40;10.40;;;8.43;;
20203;SDS011;10261;49.010;12.034;2023-05-23T01:54:44;10.52;;;9.10;;
20203;SDS011;10261;49.010;12.034;2023-05-23T01:55:49;12.63;;;7.47;;
20203;SDS011;10261;49.010;12.034;2023-05-23T01:56:53;16.23;;;8.48;;
20203;SDS011;10261;49.010;12.034;2023-05-23T01:57:57;9.38;;;7.65;;
20203;SDS011;10261;49.010;12.034;2023-05-23T01:59:03;9.38;;;8.35;;
20203;SDS011;10261;49.010;12.034;2023-05-23T02:00:05;13.10;;;8.20;;
20203;SDS011;10261;49.010;12.034;2023-05-23T02:01:11;11.95;;;8.48;;
20203;SDS011;10261;49.010;12.034;2023-05-23T02:02:13;10.27;;;8.88;;
20203;SDS011;10261;49.010;12.034;2023-05-23T02:03:16;15.93;;;8.50;;
20203;SDS011;10261;49.010;12.034;2023-05-23T02:04:18;9.27;;;8.38;;
20203;SDS011;10261;49.010;12.034;2023-05-23T02:05:22;12.07;;;8.25;;
20203;SDS011;10261;49.010;12.034;2023-05-23T02:06:24;8.63;;;7.63;;
20203;SDS011;10261;49.010;12.034;2023-05-23T02:07:27;9.82;;;8.85;;
20203;SDS011;10261;49.010;12.034;2023-05-23T02:08:29;11.90;;;8.75;;
20203;SDS011;10261;49.010;12.034;2023-05-23T02:09:32;12.45;;;8.68;;
20203;SDS011;10261;49.010;12.034;2023-05-23T02:10:34;12.73;;;8.57;;
20203;SDS011;10261;49.010;12.034;2023-05-23T02:11:37;10.85;;;9.02;;
20203;SDS011;10261;49.010;12.034;2023-05-23T02:12:39;10.15;;;9.07;;
20203;SDS011;10261;49.010;12.034;2023-05-23T02:13:42;12.52;;;9.00;;
20203;SDS011;10261;49.010;12.034;2023-05-23T02:14:45;9.70;;;8.70;;
20203;SDS011;10261;49.010;12.034;2023-05-23T02:15:48;8.85;;;7.95;;
20203;SDS011;10261;49.010;12.034;2023-05-23T02:16:50;10.60;;;8.45;;
20203;SDS011;10261;49.010;12.034;2023-05-23T02:17:53;10.57;;;9.30;;
20203;SDS011;10261;49.010;12.034;2023-05-23T02:18:55;10.05;;;8.95;;
20203;SDS011;10261;49.010;12.034;2023-05-23T02:19:58;12.10;;;9.40;;
20203;SDS011;10261;49.010;12.034;2023-05-23T02:21:00;10.80;;;8.45;;
20203;SDS011;10261;49.010;12.034;2023-05-23T02:22:03;10.40;;;8.32;;
20203;SDS011;10261;49.010;12.034;2023-05-23T02:23:05;10.75;;;9.00;;
20203;SDS011;10261;49.010;12.034;2023-05-23T02:24:09;10.13;;;8.85;;
20203;SDS011;10261;49.010;12.034;2023-05-23T02:25:11;10.02;;;8.23;;
20203;SDS011;10261;49.010;12.034;2023-05-23T02:26:15;10.77;;;8.60;;
20203;SDS011;10261;49.010;12.034;2023-05-23T02:27:18;11.60;;;8.25;;
20203;SDS011;10261;49.010;12.034;2023-05-23T02:28:21;9.98;;;8.30;;
20203;SDS011;10261;49.010;12.034;2023-05-23T02:29:23;11.57;;;9.75;;
20203;SDS011;10261;49.010;12.034;2023-05-23T02:30:27;10.27;;;9.05;;
20203;SDS011;10261;49.010;12.034;2023-05-23T02:31:29;15.05;;;10.13;;
20203;SDS011;10261;49.010;12.034;2023-05-23T02:32:32;9.68;;;8.68;;
20203;SDS011;10261;49.010;12.034;2023-05-23T02:33:34;9.85;;;8.30;;
20203;SDS011;10261;49.010;12.034;2023-05-23T02:34:37;11.75;;;9.32;;
20203;SDS011;10261;49.010;12.034;2023-05-23T02:35:39;12.48;;;9.20;;
20203;SDS011;10261;49.010;12.034;2023-05-23T02:36:42;11.90;;;9.63;;
20203;SDS011;10261;49.010;12.034;2023-05-23T02:37:44;11.07;;;9.10;;
20203;SDS011;10261;49.010;12.034;2023-05-23T02:38:47;11.98;;;10.05;;
20203;SDS011;10261;49.010;12.034;2023-05-23T02:39:49;10.45;;;8.40;;
20203;SDS011;10261;49.010;12.034;2023-05-23T02:40:52;11.80;;;9.85;;
20203;SDS011;10261;49.010;12.034;2023-05-23T02:41:54;17.05;;;9.38;;
20203;SDS011;10261;49.010;12.034;2023-05-23T02:42:57;10.32;;;8.48;;
20203;SDS011;10261;49.010;12.034;2023-05-23T02:43:58;10.50;;;9.38;;
20203;SDS011;10261;49.010;12.034;2023-05-23T02:45:01;11.07;;;8.30;;
20203;SDS011;10261;49.010;12.034;2023-05-23T02:46:05;10.75;;;9.40;;
20203;SDS011;10261;49.010;12.034;2023-05-23T02:47:08;9.88;;;8.63;;
20203;SDS011;10261;49.010;12.034;2023-05-23T02:48:10;10.82;;;9.15;;
20203;SDS011;10261;49.010;12.034;2023-05-23T02:49:13;9.65;;;8.45;;
20203;SDS011;10261;49.010;12.034;2023-05-23T02:50:15;11.85;;;9.40;;
20203;SDS011;10261;49.010;12.034;2023-05-23T02:51:18;13.05;;;9.50;;
20203;SDS011;10261;49.010;12.034;2023-05-23T02:52:20;17.80;;;10.10;;
20203;SDS011;10261;49.010;12.034;2023-05-23T02:53:23;11.50;;;9.23;;
20203;SDS011;10261;49.010;12.034;2023-05-23T02:54:25;13.25;;;8.77;;
20203;SDS011;10261;49.010;12.034;2023-05-23T02:55:28;11.93;;;9.18;;
20203;SDS011;10261;49.010;12.034;2023-05-23T02:56:32;11.55;;;9.90;;
20203;SDS011;10261;49.010;12.034;2023-05-23T02:57:34;10.82;;;9.02;;
20203;SDS011;10261;49.010;12.034;2023-05-23T02:58:36;10.88;;;8.93;;
20203;SDS011;10261;49.010;12.034;2023-05-23T02:59:40;11.85;;;9.50;;
20203;SDS011;10261;49.010;12.034;2023-05-23T03:00:42;10.63;;;9.30;;
20203;SDS011;10261;49.010;12.034;2023-05-23T03:01:46;11.80;;;9.23;;
20203;SDS011;10261;49.010;12.034;2023-05-23T03:02:48;12.45;;;10.45;;
20203;SDS011;10261;49.010;12.034;2023-05-23T03:03:51;14.35;;;9.13;;
20203;SDS011;10261;49.010;12.034;2023-05-23T03:04:53;13.57;;;9.90;;
20203;SDS011;10261;49.010;12.034;2023-05-23T03:05:57;12.85;;;8.30;;
20203;SDS011;10261;49.010;12.034;2023-05-23T03:06:59;9.48;;;8.48;;
20203;SDS011;10261;49.010;12.034;2023-05-23T03:08:07;10.35;;;8.70;;
20203;SDS011;10261;49.010;12.034;2023-05-23T03:09:10;12.60;;;9.70;;
20203;SDS011;10261;49.010;12.034;2023-05-23T03:10:12;11.43;;;10.10;;
20203;SDS011;10261;49.010;12.034;2023-05-23T03:11:14;15.75;;;8.60;;
20203;SDS011;10261;49.010;12.034;2023-05-23T03:12:16;12.48;;;8.70;;
20203;SDS011;10261;49.010;12.034;2023-05-23T03:13:19;10.43;;;9.32;;
20203;SDS011;10261;49.010;12.034;2023-05-23T03:14:21;10.38;;;9.10;;
20203;SDS011;10261;49.010;12.034;2023-05-23T03:15:24;12.00;;;9.20;;
20203;SDS011;10261;49.010;12.034;2023-05-23T03:16:26;12.52;;;9.40;;
20203;SDS011;10261;49.010;12.034;2023-05-23T03:17:30;14.07;;;9.93;;
20203;SDS011;10261;49.010;12.034;2023-05-23T03:18:32;12.48;;;10.05;;
20203;SDS011;10261;49.010;12.034;2023-05-23T03:19:35;12.30;;;9.63;;
20203;SDS011;10261;49.010;12.034;2023-05-23T03:20:37;16.33;;;8.48;;
20203;SDS011;10261;49.010;12.034;2023-05-23T03:21:40;11.75;;;10.00;;
20203;SDS011;10261;49.010;12.034;2023-05-23T03:22:42;10.48;;;8.68;;
20203;SDS011;10261;49.010;12.034;2023-05-23T03:23:46;11.10;;;9.40;;
20203;SDS011;10261;49.010;12.034;2023-05-23T03:24:47;12.73;;;9.68;;
20203;SDS011;10261;49.010;12.034;2023-05-23T03:25:50;12.07;;;10.60;;
20203;SDS011;10261;49.010;12.034;2023-05-23T03:26:52;12.27;;;9.57;;
20203;SDS011;10261;49.010;12.034;2023-05-23T03:27:56;10.20;;;9.07;;
20203;SDS011;10261;49.010;12.034;2023-05-23T03:28:58;13.15;;;10.55;;
20203;SDS011;10261;49.010;12.034;2023-05-23T03:30:01;12.10;;;9.60;;
20203;SDS011;10261;49.010;12.034;2023-05-23T03:31:04;13.13;;;10.57;;
20203;SDS011;10261;49.010;12.034;2023-05-23T03:32:06;11.20;;;10.10;;
20203;SDS011;10261;49.010;12.034;2023-05-23T03:33:10;13.48;;;9.43;;
20203;SDS011;10261;49.010;12.034;2023-05-23T03:34:13;12.75;;;9.13;;
20203;SDS011;10261;49.010;12.034;2023-05-23T03:35:15;11.50;;;9.48;;
20203;SDS011;10261;49.010;12.034;2023-05-23T03:36:18;13.25;;;10.45;;
20203;SDS011;10261;49.010;12.034;2023-05-23T03:37:22;10.82;;;9.40;;
20203;SDS011;10261;49.010;12.034;2023-05-23T03:38:23;12.50;;;9.13;;
20203;SDS011;10261;49.010;12.034;2023-05-23T03:39:27;12.02;;;10.00;;
20203;SDS011;10261;49.010;12.034;2023-05-23T03:40:29;10.07;;;9.10;;
20203;SDS011;10261;49.010;12.034;2023-05-23T03:41:31;10.38;;;9.27;;
20203;SDS011;10261;49.010;12.034;2023-05-23T03:42:35;15.15;;;10.45;;
20203;SDS011;10261;49.010;12.034;2023-05-23T03:43:38;12.70;;;9.55;;
20203;SDS011;10261;49.010;12.034;2023-05-23T03:44:40;18.75;;;10.65;;
20203;SDS011;10261;49.010;12.034;2023-05-23T03:45:42;13.82;;;10.85;;
20203;SDS011;10261;49.010;12.034;2023-05-23T03:46:45;11.65;;;9.07;;
20203;SDS011;10261;49.010;12.034;2023-05-23T03:47:48;10.95;;;9.10;;
20203;SDS011;10261;49.010;12.034;2023-05-23T03:48:51;10.63;;;9.57;;
20203;SDS011;10261;49.010;12.034;2023-05-23T03:49:54;17.17;;;10.68;;
20203;SDS011;10261;49.010;12.034;2023-05-23T03:50:56;15.70;;;9.63;;
20203;SDS011;10261;49.010;12.034;2023-05-23T03:51:58;9.73;;;8.57;;
20203;SDS011;10261;49.010;12.034;2023-05-23T03:53:00;11.60;;;9.75;;
20203;SDS011;10261;49.010;12.034;2023-05-23T03:54:03;14.13;;;10.18;;
20203;SDS011;10261;49.010;12.034;2023-05-23T03:55:05;12.50;;;9.43;;
20203;SDS011;10261;49.010;12.034;2023-05-23T03:56:09;11.63;;;9.57;;
20203;SDS011;10261;49.010;12.034;2023-05-23T03:57:11;13.93;;;11.05;;
20203;SDS011;10261;49.010;12.034;2023-05-23T03:58:14;9.98;;;8.70;;
20203;SDS011;10261;49.010;12.034;2023-05-23T03:59:16;11.05;;;9.60;;
20203;SDS011;10261;49.010;12.034;2023-05-23T04:00:19;11.70;;;9.80;;
20203;SDS011;10261;49.010;12.034;2023-05-23T04:01:21;13.45;;;10.43;;
20203;SDS011;10261;49.010;12.034;2023-05-23T04:02:25;12.30;;;10.43;;
20203;SDS011;10261;49.010;12.034;2023-05-23T04:03:27;12.15;;;10.95;;
20203;SDS011;10261;49.010;12.034;2023-05-23T04:04:34;12.23;;;10.50;;
20203;SDS011;10261;49.010;12.034;2023-05-23T04:05:36;12.70;;;9.70;;
20203;SDS011;10261;49.010;12.034;2023-05-23T04:06:39;12.13;;;9.85;;
20203;SDS011;10261;49.010;12.034;2023-05-23T04:07:41;13.80;;;9.15;;
20203;SDS011;10261;49.010;12.034;2023-05-23T04:08:45;12.50;;;9.65;;
20203;SDS011;10261;49.010;12.034;2023-05-23T04:09:46;11.50;;;10.23;;
20203;SDS011;10261;49.010;12.034;2023-05-23T04:10:49;10.30;;;9.10;;
20203;SDS011;10261;49.010;12.034;2023-05-23T04:11:51;13.18;;;10.07;;
20203;SDS011;10261;49.010;12.034;2023-05-23T04:12:54;13.65;;;9.68;;
20203;SDS011;10261;49.010;12.034;2023-05-23T04:13:57;10.68;;;9.63;;
20203;SDS011;10261;49.010;12.034;2023-05-23T04:15:00;13.75;;;10.52;;
20203;SDS011;10261;49.010;12.034;2023-05-23T04:16:02;15.05;;;9.93;;
20203;SDS011;10261;49.010;12.034;2023-05-23T04:17:06;16.08;;;10.50;;
20203;SDS011;10261;49.010;12.034;2023-05-23T04:18:09;12.40;;;9.75;;
20203;SDS011;10261;49.010;12.034;2023-05-23T04:19:12;11.88;;;9.40;;
20203;SDS011;10261;49.010;12.034;2023-05-23T04:20:15;11.25;;;9.35;;
20203;SDS011;10261;49.010;12.034;2023-05-23T04:21:18;16.17;;;10.38;;
20203;SDS011;10261;49.010;12.034;2023-05-23T04:22:20;11.55;;;10.13;;
20203;SDS011;10261;49.010;12.034;2023-05-23T04:23:23;12.80;;;10.43;;
20203;SDS011;10261;49.010;12.034;2023-05-23T04:24:25;15.60;;;10.75;;
20203;SDS011;10261;49.010;12.034;2023-05-23T04:25:27;12.25;;;9.48;;
20203;SDS011;10261;49.010;12.034;2023-05-23T04:26:29;11.63;;;8.93;;
20203;SDS011;10261;49.010;12.034;2023-05-23T04:27:33;11.25;;;9.23;;
20203;SDS011;10261;49.010;12.034;2023-05-23T04:28:35;12.43;;;9.82;;
20203;SDS011;10261;49.010;12.034;2023-05-23T04:29:40;11.85;;;9.73;;
20203;SDS011;10261;49.010;12.034;2023-05-23T04:30:41;13.80;;;9.63;;
20203;SDS011;10261;49.010;12.034;2023-05-23T04:31:44;12.52;;;10.40;;
20203;SDS011;10261;49.010;12.034;2023-05-23T04:32:47;12.32;;;10.55;;
20203;SDS011;10261;49.010;12.034;2023-05-23T04:33:49;11.90;;;10.55;;
20203;SDS011;10261;49.010;12.034;2023-05-23T04:34:52;14.75;;;10.07;;
20203;SDS011;10261;49.010;12.034;2023-05-23T04:35:58;16.25;;;9.90;;
20203;SDS011;10261;49.010;12.034;2023-05-23T04:37:00;11.52;;;9.57;;
20203;SDS011;10261;49.010;12.034;2023-05-23T04:38:03;13.32;;;10.48;;
20203;SDS011;10261;49.010;12.034;2023-05-23T04:39:05;18.65;;;11.23;;
20203;SDS011;10261;49.010;12.034;2023-05-23T04:40:08;11.60;;;9.75;;
20203;SDS011;10261;49.010;12.034;2023-05-23T04:41:11;11.13;;;10.00;;
20203;SDS011;10261;49.010;12.034;2023-05-23T04:42:16;12.85;;;10.30;;
20203;SDS011;10261;49.010;12.034;2023-05-23T04:43:18;12.45;;;10.20;;
20203;SDS011;10261;49.010;12.034;2023-05-23T04:44:22;11.75;;;10.23;;
20203;SDS011;10261;49.010;12.034;2023-05-23T04:45:24;14.02;;;10.82;;
20203;SDS011;10261;49.010;12.034;2023-05-23T04:46:26;11.40;;;9.80;;
20203;SDS011;10261;49.010;12.034;2023-05-23T04:47:29;15.07;;;10.45;;
20203;SDS011;10261;49.010;12.034;2023-05-23T04:48:37;11.88;;;10.45;;
20203;SDS011;10261;49.010;12.034;2023-05-23T04:49:39;12.48;;;10.15;;
20203;SDS011;10261;49.010;12.034;2023-05-23T04:50:42;11.88;;;10.68;;
20203;SDS011;10261;49.010;12.034;2023-05-23T04:51:48;12.38;;;9.65;;
20203;SDS011;10261;49.010;12.034;2023-05-23T04:52:51;17.67;;;11.15;;
20203;SDS011;10261;49.010;12.034;2023-05-23T04:53:53;14.52;;;10.63;;
20203;SDS011;10261;49.010;12.034;2023-05-23T04:54:57;14.23;;;10.57;;
20203;SDS011;10261;49.010;12.034;2023-05-23T04:55:59;11.88;;;10.40;;
20203;SDS011;10261;49.010;12.034;2023-05-23T04:57:02;14.32;;;10.38;;
20203;SDS011;10261;49.010;12.034;2023-05-23T04:58:04;16.33;;;11.10;;
20203;SDS011;10261;49.010;12.034;2023-05-23T04:59:08;11.00;;;9.45;;
20203;SDS011;10261;49.010;12.034;2023-05-23T05:00:11;12.82;;;10.23;;
20203;SDS011;10261;49.010;12.034;2023-05-23T05:01:15;11.02;;;9.90;;
20203;SDS011;10261;49.010;12.034;2023-05-23T05:02:17;12.20;;;10.93;;
20203;SDS011;10261;49.010;12.034;2023-05-23T05:03:20;12.20;;;10.43;;
20203;SDS011;10261;49.010;12.034;2023-05-23T05:04:25;12.30;;;10.52;;
20203;SDS011;10261;49.010;12.034;2023-05-23T05:05:28;14.90;;;11.27;;
20203;SDS011;10261;49.010;12.034;2023-05-23T05:06:30;12.93;;;11.57;;
20203;SDS011;10261;49.010;12.034;2023-05-23T05:07:35;13.15;;;11.05;;
20203;SDS011;10261;49.010;12.034;2023-05-23T05:08:37;11.45;;;10.25;;
20203;SDS011;10261;49.010;12.034;2023-05-23T05:09:40;13.20;;;10.23;;
20203;SDS011;10261;49.010;12.034;2023-05-23T05:10:42;12.85;;;10.80;;
20203;SDS011;10261;49.010;12.034;2023-05-23T05:11:45;18.42;;;10.82;;
20203;SDS011;10261;49.010;12.034;2023-05-23T05:12:47;17.30;;;10.32;;
20203;SDS011;10261;49.010;12.034;2023-05-23T05:13:50;14.02;;;10.90;;
20203;SDS011;10261;49.010;12.034;2023-05-23T05:14:52;14.23;;;10.48;;
20203;SDS011;10261;49.010;12.034;2023-05-23T05:15:55;15.25;;;11.30;;
20203;SDS011;10261;49.010;12.034;2023-05-23T05:16:57;11.68;;;10.45;;
20203;SDS011;10261;49.010;12.034;2023-05-23T05:18:03;11.43;;;10.02;;
20203;SDS011;10261;49.010;12.034;2023-05-23T05:19:05;15.43;;;10.93;;
20203;SDS011;10261;49.010;12.034;2023-05-23T05:20:08;10.85;;;9.50;;
20203;SDS011;10261;49.010;12.034;2023-05-23T05:21:11;15.00;;;10.15;;
20203;SDS011;10261;49.010;12.034;2023-05-23T05:22:14;17.58;;;11.88;;
20203;SDS011;10261;49.010;12.034;2023-05-23T05:23:18;13.02;;;10.77;;
20203;SDS011;10261;49.010;12.034;2023-05-23T05:24:20;15.32;;;11.43;;
20203;SDS011;10261;49.010;12.034;2023-05-23T05:25:23;13.27;;;11.18;;
20203;SDS011;10261;49.010;12.034;2023-05-23T05:26:25;15.27;;;11.02;;
20203;SDS011;10261;49.010;12.034;2023-05-23T05:27:28;16.98;;;11.30;;
20203;SDS011;10261;49.010;12.034;2023-05-23T05:28:30;12.68;;;10.45;;
20203;SDS011;10261;49.010;12.034;2023-05-23T05:29:33;13.65;;;11.45;;
20203;SDS011;10261;49.010;12.034;2023-05-23T05:30:35;14.80;;;11.95;;
20203;SDS011;10261;49.010;12.034;2023-05-23T05:31:39;14.95;;;11.73;;
20203;SDS011;10261;49.010;12.034;2023-05-23T05:32:41;12.70;;;10.15;;
20203;SDS011;10261;49.010;12.034;2023-05-23T05:33:46;13.18;;;10.38;;
20203;SDS011;10261;49.010;12.034;2023-05-23T05:35:13;12.02;;;10.48;;
20203;SDS011;10261;49.010;12.034;2023-05-23T05:36:18;12.07;;;10.80;;
20203;SDS011;10261;49.010;12.034;2023-05-23T05:37:20;14.00;;;11.10;;
20203;SDS011;10261;49.010;12.034;2023-05-23T05:38:25;14.48;;;10.52;;
20203;SDS011;10261;49.010;12.034;2023-05-23T05:39:27;14.43;;;10.98;;
20203;SDS011;10261;49.010;12.034;2023-05-23T05:40:29;14.45;;;9.77;;
20203;SDS011;10261;49.010;12.034;2023-05-23T05:41:32;13.63;;;11.27;;
20203;SDS011;10261;49.010;12.034;2023-05-23T05:42:35;16.38;;;11.93;;
20203;SDS011;10261;49.010;12.034;2023-05-23T05:43:36;12.88;;;11.07;;
20203;SDS011;10261;49.010;12.034;2023-05-23T05:44:39;11.90;;;10.70;;
20203;SDS011;10261;49.010;12.034;2023-05-23T05:45:42;15.30;;;11.68;;
20203;SDS011;10261;49.010;12.034;2023-05-23T05:46:44;11.38;;;9.98;;
20203;SDS011;10261;49.010;12.034;2023-05-23T05:47:48;15.13;;;11.15;;
20203;SDS011;10261;49.010;12.034;2023-05-23T05:48:51;11.90;;;9.45;;
20203;SDS011;10261;49.010;12.034;2023-05-23T05:49:53;15.85;;;11.68;;
20203;SDS011;10261;49.010;12.034;2023-05-23T05:50:55;12.38;;;10.57;;
20203;SDS011;10261;49.010;12.034;2023-05-23T05:52:01;13.48;;;11.00;;
20203;SDS011;10261;49.010;12.034;2023-05-23T05:53:03;13.23;;;9.45;;
20203;SDS011;10261;49.010;12.034;2023-05-23T05:54:07;12.70;;;10.35;;
20203;SDS011;10261;49.010;12.034;2023-05-23T05:55:09;12.50;;;10.55;;
20203;SDS011;10261;49.010;12.034;2023-05-23T05:56:12;11.13;;;10.00;;
20203;SDS011;10261;49.010;12.034;2023-05-23T05:57:14;12.75;;;10.70;;
20203;SDS011;10261;49.010;12.034;2023-05-23T05:58:17;15.23;;;10.18;;
20203;SDS011;10261;49.010;12.034;2023-05-23T05:59:19;10.02;;;8.70;;
20203;SDS011;10261;49.010;12.034;2023-05-23T06:00:22;8.48;;;7.47;;
20203;SDS011;10261;49.010;12.034;2023-05-23T06:01:25;9.20;;;7.75;;
20203;SDS011;10261;49.010;12.034;2023-05-23T06:02:28;9.40;;;8.30;;
20203;SDS011;10261;49.010;12.034;2023-05-23T06:03:30;12.70;;;10.07;;
20203;SDS011;10261;49.010;12.034;2023-05-23T06:04:34;9.35;;;8.25;;
20203;SDS011;10261;49.010;12.034;2023-05-23T06:05:36;9.52;;;8.15;;
20203;SDS011;10261;49.010;12.034;2023-05-23T06:06:39;8.82;;;7.93;;
20203;SDS011;10261;49.010;12.034;2023-05-23T06:07:41;10.98;;;9.00;;
20203;SDS011;10261;49.010;12.034;2023-05-23T06:08:45;11.30;;;9.32;;
20203;SDS011;10261;49.010;12.034;2023-05-23T06:09:49;13.52;;;8.80;;
20203;SDS011;10261;49.010;12.034;2023-05-23T06:10:51;16.00;;;10.38;;